sensor_id;sensor_type;location;lat;lon;timestamp;P1;durP1;ratioP1;P2;durP2;ratioP2
24161;SDS011;12318;51.262;7.066;2023-05-29T00:00:22;5.63;;;2.88;;
24161;SDS011;12318;51.262;7.066;2023-05-29T00:02:49;5.88;;;3.00;;
24161;SDS011;12318;51.262;7.066;2023-05-29T00:05:16;8.05;;;2.70;;
24161;SDS011;12318;51.262;7.066;2023-05-29T00:07:42;5.80;;;2.85;;
24161;SDS011;12318;51.262;7.066;2023-05-29T00:10:09;4.70;;;2.67;;
24161;SDS011;12318;51.262;7.066;2023-05-29T00:12:35;7.80;;;3.03;;
24161;SDS011;12318;51.262;7.066;2023-05-29T00:15:02;7.30;;;3.15;;
24161;SDS011;12318;51.262;7.066;2023-05-29T00:17:31;8.38;;;3.17;;
24161;SDS011;12318;51.262;7.066;2023-05-29T00:20:00;6.60;;;3.03;;
24161;SDS011;12318;51.262;7.066;2023-05-29T00:22:28;5.72;;;2.80;;
24161;SDS011;12318;51.262;7.066;2023-05-29T00:24:55;9.75;;;2.97;;
24161;SDS011;12318;51.262;7.066;2023-05-29T00:27:21;7.57;;;3.20;;
24161;SDS011;12318;51.262;7.066;2023-05-29T00:29:46;7.68;;;3.00;;
24161;SDS011;12318;51.262;7.066;2023-05-29T00:32:12;5.25;;;2.70;;
24161;SDS011;12318;51.262;7.066;2023-05-29T00:34:38;9.52;;;3.63;;
24161;SDS011;12318;51.262;7.066;2023-05-29T00:37:04;7.28;;;3.03;;
24161;SDS011;12318;51.262;7.066;2023-05-29T00:39:30;8.07;;;2.92;;
24161;SDS011;12318;51.262;7.066;2023-05-29T00:41:56;8.55;;;3.47;;
24161;SDS011;12318;51.262;7.066;2023-05-29T00:44:22;7.60;;;3.25;;
24161;SDS011;12318;51.262;7.066;2023-05-29T00:46:48;6.13;;;3.17;;
24161;SDS011;12318;51.262;7.066;2023-05-29T00:49:16;7.20;;;3.10;;
24161;SDS011;12318;51.262;7.066;2023-05-29T00:51:42;6.20;;;2.80;;
24161;SDS011;12318;51.262;7.066;2023-05-29T00:54:10;8.23;;;2.92;;
24161;SDS011;12318;51.262;7.066;2023-05-29T00:56:38;6.53;;;3.08;;
24161;SDS011;12318;51.262;7.066;2023-05-29T00:59:07;7.50;;;3.38;;
24161;SDS011;12318;51.262;7.066;2023-05-29T01:01:34;6.07;;;3.08;;
24161;SDS011;12318;51.262;7.066;2023-05-29T01:04:01;7.95;;;3.05;;
24161;SDS011;12318;51.262;7.066;2023-05-29T01:06:31;6.70;;;3.20;;
24161;SDS011;12318;51.262;7.066;2023-05-29T01:08:58;8.10;;;3.85;;
24161;SDS011;12318;51.262;7.066;2023-05-29T01:14:23;8.45;;;3.78;;
24161;SDS011;12318;51.262;7.066;2023-05-29T01:17:03;9.10;;;4.38;;
24161;SDS011;12318;51.262;7.066;2023-05-29T01:27:54;11.05;;;3.53;;
24161;SDS011;12318;51.262;7.066;2023-05-29T01:30:22;9.18;;;3.67;;
24161;SDS011;12318;51.262;7.066;2023-05-29T01:32:49;14.85;;;4.03;;
24161;SDS011;12318;51.262;7.066;2023-05-29T01:35:16;11.07;;;4.25;;
24161;SDS011;12318;51.262;7.066;2023-05-29T01:37:41;9.65;;;4.03;;
24161;SDS011;12318;51.262;7.066;2023-05-29T01:40:07;15.77;;;4.40;;
24161;SDS011;12318;51.262;7.066;2023-05-29T01:42:34;10.20;;;4.28;;
24161;SDS011;12318;51.262;7.066;2023-05-29T01:45:00;8.55;;;3.95;;
24161;SDS011;12318;51.262;7.066;2023-05-29T01:47:27;12.55;;;4.35;;
24161;SDS011;12318;51.262;7.066;2023-05-29T01:49:52;8.07;;;4.00;;
24161;SDS011;12318;51.262;7.066;2023-05-29T01:52:19;13.70;;;4.60;;
24161;SDS011;12318;51.262;7.066;2023-05-29T01:54:45;9.75;;;3.90;;
24161;SDS011;12318;51.262;7.066;2023-05-29T01:57:11;14.18;;;4.03;;
24161;SDS011;12318;51.262;7.066;2023-05-29T01:59:37;13.98;;;4.45;;
24161;SDS011;12318;51.262;7.066;2023-05-29T02:02:07;11.85;;;3.72;;
24161;SDS011;12318;51.262;7.066;2023-05-29T02:04:34;12.85;;;3.60;;
24161;SDS011;12318;51.262;7.066;2023-05-29T02:06:59;12.90;;;3.90;;
24161;SDS011;12318;51.262;7.066;2023-05-29T02:09:25;11.90;;;3.70;;
24161;SDS011;12318;51.262;7.066;2023-05-29T02:11:51;17.85;;;3.95;;
24161;SDS011;12318;51.262;7.066;2023-05-29T02:14:18;15.82;;;4.13;;
24161;SDS011;12318;51.262;7.066;2023-05-29T02:16:44;15.95;;;3.70;;
24161;SDS011;12318;51.262;7.066;2023-05-29T02:19:10;18.60;;;4.35;;
24161;SDS011;12318;51.262;7.066;2023-05-29T02:21:39;12.82;;;4.22;;
24161;SDS011;12318;51.262;7.066;2023-05-29T02:24:08;14.38;;;3.78;;
24161;SDS011;12318;51.262;7.066;2023-05-29T02:26:34;14.15;;;3.50;;
24161;SDS011;12318;51.262;7.066;2023-05-29T02:29:02;16.10;;;3.97;;
24161;SDS011;12318;51.262;7.066;2023-05-29T02:31:31;19.33;;;4.03;;
24161;SDS011;12318;51.262;7.066;2023-05-29T02:33:59;14.38;;;4.05;;
24161;SDS011;12318;51.262;7.066;2023-05-29T02:36:24;17.83;;;3.60;;
24161;SDS011;12318;51.262;7.066;2023-05-29T02:38:50;25.90;;;4.55;;
24161;SDS011;12318;51.262;7.066;2023-05-29T02:41:16;14.75;;;3.38;;
24161;SDS011;12318;51.262;7.066;2023-05-29T02:43:42;19.80;;;4.68;;
24161;SDS011;12318;51.262;7.066;2023-05-29T02:46:07;18.45;;;4.57;;
24161;SDS011;12318;51.262;7.066;2023-05-29T02:48:33;22.95;;;4.68;;
24161;SDS011;12318;51.262;7.066;2023-05-29T02:50:59;19.02;;;4.53;;
24161;SDS011;12318;51.262;7.066;2023-05-29T02:53:25;17.00;;;3.83;;
24161;SDS011;12318;51.262;7.066;2023-05-29T02:55:50;23.98;;;5.32;;
24161;SDS011;12318;51.262;7.066;2023-05-29T02:58:16;15.98;;;4.32;;
24161;SDS011;12318;51.262;7.066;2023-05-29T03:00:42;21.23;;;4.55;;
24161;SDS011;12318;51.262;7.066;2023-05-29T03:03:08;19.27;;;4.03;;
24161;SDS011;12318;51.262;7.066;2023-05-29T03:05:34;22.65;;;4.43;;
24161;SDS011;12318;51.262;7.066;2023-05-29T03:08:00;22.17;;;4.50;;
24161;SDS011;12318;51.262;7.066;2023-05-29T03:10:25;15.70;;;4.57;;
24161;SDS011;12318;51.262;7.066;2023-05-29T03:12:51;18.80;;;4.00;;
24161;SDS011;12318;51.262;7.066;2023-05-29T03:15:17;27.38;;;6.00;;
24161;SDS011;12318;51.262;7.066;2023-05-29T03:17:45;16.40;;;4.38;;
24161;SDS011;12318;51.262;7.066;2023-05-29T03:20:11;21.42;;;4.60;;
24161;SDS011;12318;51.262;7.066;2023-05-29T03:22:38;22.55;;;4.47;;
24161;SDS011;12318;51.262;7.066;2023-05-29T03:25:05;17.98;;;4.18;;
24161;SDS011;12318;51.262;7.066;2023-05-29T03:27:31;20.02;;;4.18;;
24161;SDS011;12318;51.262;7.066;2023-05-29T03:29:57;21.40;;;4.55;;
24161;SDS011;12318;51.262;7.066;2023-05-29T03:32:23;24.92;;;4.50;;
24161;SDS011;12318;51.262;7.066;2023-05-29T03:34:49;27.73;;;4.90;;
24161;SDS011;12318;51.262;7.066;2023-05-29T03:37:15;18.13;;;4.15;;
24161;SDS011;12318;51.262;7.066;2023-05-29T03:39:41;23.50;;;4.90;;
24161;SDS011;12318;51.262;7.066;2023-05-29T03:42:07;17.52;;;4.18;;
24161;SDS011;12318;51.262;7.066;2023-05-29T03:44:33;19.63;;;4.47;;
24161;SDS011;12318;51.262;7.066;2023-05-29T03:49:26;23.75;;;4.35;;
24161;SDS011;12318;51.262;7.066;2023-05-29T03:51:52;20.10;;;3.67;;
24161;SDS011;12318;51.262;7.066;2023-05-29T03:54:18;21.50;;;4.20;;
24161;SDS011;12318;51.262;7.066;2023-05-29T03:56:43;17.23;;;3.78;;
24161;SDS011;12318;51.262;7.066;2023-05-29T03:59:09;20.15;;;4.85;;
24161;SDS011;12318;51.262;7.066;2023-05-29T04:01:35;18.77;;;3.88;;
24161;SDS011;12318;51.262;7.066;2023-05-29T04:04:02;19.23;;;4.20;;
24161;SDS011;12318;51.262;7.066;2023-05-29T04:06:27;21.48;;;4.63;;
24161;SDS011;12318;51.262;7.066;2023-05-29T04:08:53;14.25;;;3.83;;
24161;SDS011;12318;51.262;7.066;2023-05-29T04:11:19;19.92;;;4.57;;
24161;SDS011;12318;51.262;7.066;2023-05-29T04:13:48;24.15;;;4.38;;
24161;SDS011;12318;51.262;7.066;2023-05-29T04:16:14;17.55;;;3.92;;
24161;SDS011;12318;51.262;7.066;2023-05-29T04:18:40;19.80;;;4.10;;
24161;SDS011;12318;51.262;7.066;2023-05-29T04:21:06;22.55;;;4.10;;
24161;SDS011;12318;51.262;7.066;2023-05-29T04:23:32;18.40;;;4.32;;
24161;SDS011;12318;51.262;7.066;2023-05-29T04:26:00;22.08;;;5.05;;
24161;SDS011;12318;51.262;7.066;2023-05-29T04:28:30;19.30;;;4.55;;
24161;SDS011;12318;51.262;7.066;2023-05-29T04:30:56;20.38;;;4.63;;
24161;SDS011;12318;51.262;7.066;2023-05-29T04:33:22;21.40;;;5.00;;
24161;SDS011;12318;51.262;7.066;2023-05-29T04:35:51;23.70;;;4.65;;
24161;SDS011;12318;51.262;7.066;2023-05-29T04:38:17;24.20;;;4.45;;
24161;SDS011;12318;51.262;7.066;2023-05-29T04:40:44;16.30;;;4.05;;
24161;SDS011;12318;51.262;7.066;2023-05-29T04:43:10;20.15;;;4.22;;
24161;SDS011;12318;51.262;7.066;2023-05-29T04:45:36;20.77;;;4.28;;
24161;SDS011;12318;51.262;7.066;2023-05-29T04:48:02;19.33;;;5.10;;
24161;SDS011;12318;51.262;7.066;2023-05-29T04:50:29;19.58;;;4.30;;
24161;SDS011;12318;51.262;7.066;2023-05-29T04:52:56;23.80;;;4.70;;
24161;SDS011;12318;51.262;7.066;2023-05-29T04:55:22;22.85;;;4.35;;
24161;SDS011;12318;51.262;7.066;2023-05-29T04:57:48;20.80;;;4.20;;
24161;SDS011;12318;51.262;7.066;2023-05-29T05:00:15;20.98;;;4.38;;
24161;SDS011;12318;51.262;7.066;2023-05-29T05:02:42;22.70;;;4.68;;
24161;SDS011;12318;51.262;7.066;2023-05-29T05:05:11;21.25;;;4.35;;
24161;SDS011;12318;51.262;7.066;2023-05-29T05:07:37;15.63;;;4.47;;
24161;SDS011;12318;51.262;7.066;2023-05-29T05:10:03;20.48;;;4.38;;
24161;SDS011;12318;51.262;7.066;2023-05-29T05:12:29;18.25;;;3.92;;
24161;SDS011;12318;51.262;7.066;2023-05-29T05:14:55;16.05;;;3.65;;
24161;SDS011;12318;51.262;7.066;2023-05-29T05:17:21;17.60;;;4.20;;
24161;SDS011;12318;51.262;7.066;2023-05-29T05:19:47;18.58;;;4.22;;
24161;SDS011;12318;51.262;7.066;2023-05-29T05:22:14;13.52;;;3.50;;
24161;SDS011;12318;51.262;7.066;2023-05-29T05:24:40;21.40;;;4.30;;
24161;SDS011;12318;51.262;7.066;2023-05-29T05:27:06;18.23;;;3.80;;
24161;SDS011;12318;51.262;7.066;2023-05-29T05:29:32;18.92;;;4.72;;
24161;SDS011;12318;51.262;7.066;2023-05-29T05:31:57;22.85;;;4.88;;
24161;SDS011;12318;51.262;7.066;2023-05-29T05:34:23;24.58;;;4.45;;
24161;SDS011;12318;51.262;7.066;2023-05-29T05:36:49;17.63;;;3.75;;
24161;SDS011;12318;51.262;7.066;2023-05-29T05:39:15;19.65;;;4.18;;
24161;SDS011;12318;51.262;7.066;2023-05-29T05:41:40;16.00;;;4.60;;
24161;SDS011;12318;51.262;7.066;2023-05-29T05:44:07;23.20;;;4.25;;
24161;SDS011;12318;51.262;7.066;2023-05-29T05:46:33;20.55;;;4.70;;
24161;SDS011;12318;51.262;7.066;2023-05-29T05:48:59;14.30;;;3.95;;
24161;SDS011;12318;51.262;7.066;2023-05-29T05:51:26;17.30;;;3.97;;
24161;SDS011;12318;51.262;7.066;2023-05-29T05:53:51;19.45;;;4.07;;
24161;SDS011;12318;51.262;7.066;2023-05-29T05:56:17;22.85;;;4.13;;
24161;SDS011;12318;51.262;7.066;2023-05-29T05:58:43;19.10;;;4.80;;
24161;SDS011;12318;51.262;7.066;2023-05-29T06:01:09;18.65;;;4.10;;
24161;SDS011;12318;51.262;7.066;2023-05-29T06:03:35;24.35;;;4.07;;
24161;SDS011;12318;51.262;7.066;2023-05-29T06:06:02;20.63;;;4.40;;
24161;SDS011;12318;51.262;7.066;2023-05-29T06:08:28;18.23;;;3.92;;
24161;SDS011;12318;51.262;7.066;2023-05-29T06:10:55;22.92;;;4.25;;
24161;SDS011;12318;51.262;7.066;2023-05-29T06:13:21;19.15;;;4.25;;
24161;SDS011;12318;51.262;7.066;2023-05-29T06:15:48;16.17;;;4.13;;
24161;SDS011;12318;51.262;7.066;2023-05-29T06:18:14;17.73;;;4.15;;
24161;SDS011;12318;51.262;7.066;2023-05-29T06:20:39;19.05;;;4.38;;
24161;SDS011;12318;51.262;7.066;2023-05-29T06:23:06;20.70;;;4.43;;
24161;SDS011;12318;51.262;7.066;2023-05-29T06:25:32;20.45;;;3.90;;
24161;SDS011;12318;51.262;7.066;2023-05-29T06:28:01;15.25;;;3.40;;
24161;SDS011;12318;51.262;7.066;2023-05-29T06:30:27;17.13;;;3.97;;
24161;SDS011;12318;51.262;7.066;2023-05-29T06:32:54;16.67;;;3.95;;
24161;SDS011;12318;51.262;7.066;2023-05-29T06:35:20;19.30;;;4.00;;
24161;SDS011;12318;51.262;7.066;2023-05-29T06:37:46;17.02;;;4.35;;
24161;SDS011;12318;51.262;7.066;2023-05-29T06:40:14;18.15;;;4.50;;
24161;SDS011;12318;51.262;7.066;2023-05-29T06:42:43;16.73;;;3.88;;
24161;SDS011;12318;51.262;7.066;2023-05-29T06:45:12;13.20;;;3.58;;
24161;SDS011;12318;51.262;7.066;2023-05-29T06:47:41;18.55;;;3.63;;
24161;SDS011;12318;51.262;7.066;2023-05-29T06:50:07;17.08;;;3.50;;
24161;SDS011;12318;51.262;7.066;2023-05-29T06:52:33;16.63;;;3.42;;
24161;SDS011;12318;51.262;7.066;2023-05-29T06:55:01;18.83;;;4.43;;
24161;SDS011;12318;51.262;7.066;2023-05-29T06:57:27;18.15;;;3.97;;
24161;SDS011;12318;51.262;7.066;2023-05-29T06:59:53;13.95;;;3.63;;
24161;SDS011;12318;51.262;7.066;2023-05-29T07:02:19;19.67;;;4.28;;
24161;SDS011;12318;51.262;7.066;2023-05-29T07:04:45;16.95;;;4.13;;
24161;SDS011;12318;51.262;7.066;2023-05-29T07:07:11;21.15;;;4.65;;
24161;SDS011;12318;51.262;7.066;2023-05-29T07:09:36;16.30;;;3.38;;
24161;SDS011;12318;51.262;7.066;2023-05-29T07:12:04;18.95;;;3.95;;
24161;SDS011;12318;51.262;7.066;2023-05-29T07:14:31;18.15;;;3.65;;
24161;SDS011;12318;51.262;7.066;2023-05-29T07:16:56;17.63;;;4.13;;
24161;SDS011;12318;51.262;7.066;2023-05-29T07:19:24;17.38;;;4.10;;
24161;SDS011;12318;51.262;7.066;2023-05-29T07:21:50;17.90;;;4.38;;
24161;SDS011;12318;51.262;7.066;2023-05-29T07:24:16;19.85;;;4.53;;
24161;SDS011;12318;51.262;7.066;2023-05-29T07:26:41;20.67;;;4.07;;
24161;SDS011;12318;51.262;7.066;2023-05-29T07:29:07;19.42;;;3.70;;
24161;SDS011;12318;51.262;7.066;2023-05-29T07:31:33;16.38;;;3.75;;
24161;SDS011;12318;51.262;7.066;2023-05-29T07:33:59;15.95;;;3.60;;
24161;SDS011;12318;51.262;7.066;2023-05-29T07:36:28;16.23;;;4.00;;
24161;SDS011;12318;51.262;7.066;2023-05-29T07:41:23;24.70;;;3.95;;
24161;SDS011;12318;51.262;7.066;2023-05-29T07:43:49;21.38;;;4.40;;
24161;SDS011;12318;51.262;7.066;2023-05-29T07:46:17;17.85;;;4.13;;
24161;SDS011;12318;51.262;7.066;2023-05-29T07:48:43;20.13;;;4.13;;
24161;SDS011;12318;51.262;7.066;2023-05-29T07:51:11;12.63;;;3.85;;
24161;SDS011;12318;51.262;7.066;2023-05-29T07:53:37;17.85;;;4.20;;
24161;SDS011;12318;51.262;7.066;2023-05-29T07:56:03;17.40;;;4.47;;
24161;SDS011;12318;51.262;7.066;2023-05-29T07:58:29;16.98;;;4.35;;
24161;SDS011;12318;51.262;7.066;2023-05-29T08:00:55;17.40;;;4.00;;
24161;SDS011;12318;51.262;7.066;2023-05-29T08:03:21;17.23;;;4.13;;
24161;SDS011;12318;51.262;7.066;2023-05-29T08:05:47;20.77;;;4.63;;
24161;SDS011;12318;51.262;7.066;2023-05-29T08:08:13;15.77;;;4.13;;
24161;SDS011;12318;51.262;7.066;2023-05-29T08:10:39;15.23;;;4.15;;
24161;SDS011;12318;51.262;7.066;2023-05-29T08:13:04;15.85;;;3.53;;
24161;SDS011;12318;51.262;7.066;2023-05-29T08:15:30;20.48;;;4.05;;
24161;SDS011;12318;51.262;7.066;2023-05-29T08:17:57;19.00;;;4.35;;
24161;SDS011;12318;51.262;7.066;2023-05-29T08:20:23;19.02;;;4.15;;
24161;SDS011;12318;51.262;7.066;2023-05-29T08:22:48;13.25;;;4.05;;
24161;SDS011;12318;51.262;7.066;2023-05-29T08:25:15;17.05;;;4.45;;
24161;SDS011;12318;51.262;7.066;2023-05-29T08:27:40;18.38;;;3.88;;
24161;SDS011;12318;51.262;7.066;2023-05-29T08:30:06;16.75;;;4.50;;
24161;SDS011;12318;51.262;7.066;2023-05-29T08:32:32;16.13;;;4.07;;
24161;SDS011;12318;51.262;7.066;2023-05-29T08:35:00;13.32;;;4.35;;
24161;SDS011;12318;51.262;7.066;2023-05-29T08:37:26;16.35;;;4.30;;
24161;SDS011;12318;51.262;7.066;2023-05-29T08:39:52;15.27;;;4.15;;
24161;SDS011;12318;51.262;7.066;2023-05-29T08:42:21;23.80;;;4.90;;
24161;SDS011;12318;51.262;7.066;2023-05-29T08:44:53;16.25;;;3.90;;
24161;SDS011;12318;51.262;7.066;2023-05-29T08:47:22;13.37;;;3.90;;
24161;SDS011;12318;51.262;7.066;2023-05-29T08:49:52;20.25;;;4.10;;
24161;SDS011;12318;51.262;7.066;2023-05-29T08:52:19;15.23;;;4.28;;
24161;SDS011;12318;51.262;7.066;2023-05-29T08:54:47;16.95;;;3.92;;
24161;SDS011;12318;51.262;7.066;2023-05-29T08:57:13;15.40;;;4.00;;
24161;SDS011;12318;51.262;7.066;2023-05-29T08:59:42;15.07;;;3.83;;
24161;SDS011;12318;51.262;7.066;2023-05-29T09:02:10;21.10;;;4.57;;
24161;SDS011;12318;51.262;7.066;2023-05-29T09:04:43;13.75;;;4.15;;
24161;SDS011;12318;51.262;7.066;2023-05-29T09:07:17;20.17;;;4.40;;
24161;SDS011;12318;51.262;7.066;2023-05-29T09:09:45;18.48;;;4.85;;
24161;SDS011;12318;51.262;7.066;2023-05-29T09:12:11;14.32;;;4.57;;
24161;SDS011;12318;51.262;7.066;2023-05-29T09:14:41;12.27;;;4.45;;
24161;SDS011;12318;51.262;7.066;2023-05-29T09:17:09;15.70;;;5.00;;
24161;SDS011;12318;51.262;7.066;2023-05-29T09:19:36;15.73;;;4.35;;
24161;SDS011;12318;51.262;7.066;2023-05-29T09:22:13;16.40;;;4.22;;
24161;SDS011;12318;51.262;7.066;2023-05-29T09:24:46;12.07;;;3.97;;
24161;SDS011;12318;51.262;7.066;2023-05-29T09:27:13;19.13;;;5.00;;
24161;SDS011;12318;51.262;7.066;2023-05-29T09:29:40;15.45;;;4.55;;
24161;SDS011;12318;51.262;7.066;2023-05-29T09:32:10;19.98;;;5.00;;
24161;SDS011;12318;51.262;7.066;2023-05-29T09:34:38;16.73;;;4.37;;
24161;SDS011;12318;51.262;7.066;2023-05-29T09:37:05;14.77;;;5.20;;
24161;SDS011;12318;51.262;7.066;2023-05-29T09:42:07;16.95;;;4.40;;
24161;SDS011;12318;51.262;7.066;2023-05-29T09:44:34;14.63;;;4.20;;
24161;SDS011;12318;51.262;7.066;2023-05-29T09:47:00;16.48;;;4.95;;
24161;SDS011;12318;51.262;7.066;2023-05-29T09:49:26;15.38;;;4.30;;
24161;SDS011;12318;51.262;7.066;2023-05-29T09:51:56;13.60;;;4.60;;
24161;SDS011;12318;51.262;7.066;2023-05-29T09:54:26;16.80;;;4.40;;
24161;SDS011;12318;51.262;7.066;2023-05-29T09:56:56;20.83;;;5.25;;
24161;SDS011;12318;51.262;7.066;2023-05-29T09:59:23;16.33;;;4.43;;
24161;SDS011;12318;51.262;7.066;2023-05-29T10:01:54;17.15;;;4.47;;
24161;SDS011;12318;51.262;7.066;2023-05-29T10:04:29;17.98;;;4.22;;
24161;SDS011;12318;51.262;7.066;2023-05-29T10:07:04;17.77;;;4.70;;
24161;SDS011;12318;51.262;7.066;2023-05-29T10:09:34;13.60;;;4.32;;
24161;SDS011;12318;51.262;7.066;2023-05-29T10:12:13;18.00;;;4.10;;
24161;SDS011;12318;51.262;7.066;2023-05-29T10:14:40;13.00;;;3.80;;
24161;SDS011;12318;51.262;7.066;2023-05-29T10:17:09;17.33;;;3.92;;
24161;SDS011;12318;51.262;7.066;2023-05-29T10:19:38;13.73;;;4.50;;
24161;SDS011;12318;51.262;7.066;2023-05-29T10:22:05;15.98;;;4.47;;
24161;SDS011;12318;51.262;7.066;2023-05-29T10:24:32;20.40;;;5.05;;
24161;SDS011;12318;51.262;7.066;2023-05-29T10:27:00;16.92;;;3.80;;
24161;SDS011;12318;51.262;7.066;2023-05-29T10:29:41;13.95;;;4.15;;
24161;SDS011;12318;51.262;7.066;2023-05-29T10:32:27;16.45;;;3.60;;
24161;SDS011;12318;51.262;7.066;2023-05-29T10:35:18;15.63;;;4.07;;
24161;SDS011;12318;51.262;7.066;2023-05-29T10:38:03;12.82;;;3.58;;
24161;SDS011;12318;51.262;7.066;2023-05-29T10:40:36;10.87;;;3.27;;
24161;SDS011;12318;51.262;7.066;2023-05-29T10:43:02;16.27;;;3.60;;
24161;SDS011;12318;51.262;7.066;2023-05-29T10:47:54;11.23;;;3.95;;
24161;SDS011;12318;51.262;7.066;2023-05-29T10:50:38;18.80;;;4.47;;
24161;SDS011;12318;51.262;7.066;2023-05-29T10:53:07;17.90;;;4.88;;
24161;SDS011;12318;51.262;7.066;2023-05-29T10:55:35;16.55;;;4.53;;
24161;SDS011;12318;51.262;7.066;2023-05-29T10:58:06;14.93;;;3.88;;
24161;SDS011;12318;51.262;7.066;2023-05-29T11:00:33;23.30;;;4.53;;
24161;SDS011;12318;51.262;7.066;2023-05-29T11:03:06;16.80;;;4.20;;
24161;SDS011;12318;51.262;7.066;2023-05-29T11:05:35;10.77;;;3.45;;
24161;SDS011;12318;51.262;7.066;2023-05-29T11:11:29;12.15;;;4.07;;
24161;SDS011;12318;51.262;7.066;2023-05-29T11:14:05;12.30;;;3.97;;
24161;SDS011;12318;51.262;7.066;2023-05-29T11:18:58;11.30;;;3.45;;
24161;SDS011;12318;51.262;7.066;2023-05-29T11:21:53;15.45;;;4.35;;
24161;SDS011;12318;51.262;7.066;2023-05-29T11:24:26;16.08;;;3.95;;
24161;SDS011;12318;51.262;7.066;2023-05-29T11:26:53;19.30;;;4.13;;
24161;SDS011;12318;51.262;7.066;2023-05-29T11:29:23;14.80;;;3.88;;
24161;SDS011;12318;51.262;7.066;2023-05-29T11:31:57;17.85;;;3.70;;
24161;SDS011;12318;51.262;7.066;2023-05-29T11:34:28;15.52;;;3.85;;
24161;SDS011;12318;51.262;7.066;2023-05-29T11:36:58;17.08;;;3.92;;
24161;SDS011;12318;51.262;7.066;2023-05-29T11:39:25;13.30;;;3.83;;
24161;SDS011;12318;51.262;7.066;2023-05-29T11:41:51;15.55;;;4.32;;
24161;SDS011;12318;51.262;7.066;2023-05-29T11:44:18;17.35;;;4.28;;
24161;SDS011;12318;51.262;7.066;2023-05-29T11:46:44;14.90;;;3.95;;
24161;SDS011;12318;51.262;7.066;2023-05-29T11:49:10;13.25;;;3.88;;
24161;SDS011;12318;51.262;7.066;2023-05-29T11:51:35;16.45;;;4.18;;
24161;SDS011;12318;51.262;7.066;2023-05-29T11:54:01;16.65;;;4.20;;
24161;SDS011;12318;51.262;7.066;2023-05-29T11:56:29;16.13;;;3.83;;
24161;SDS011;12318;51.262;7.066;2023-05-29T11:58:55;17.20;;;3.72;;
24161;SDS011;12318;51.262;7.066;2023-05-29T12:01:24;19.33;;;3.70;;
24161;SDS011;12318;51.262;7.066;2023-05-29T12:03:51;15.40;;;3.58;;
24161;SDS011;12318;51.262;7.066;2023-05-29T12:06:30;15.15;;;3.42;;
24161;SDS011;12318;51.262;7.066;2023-05-29T12:09:02;13.68;;;3.22;;
24161;SDS011;12318;51.262;7.066;2023-05-29T12:11:29;11.05;;;3.20;;
24161;SDS011;12318;51.262;7.066;2023-05-29T12:13:58;12.15;;;3.13;;
24161;SDS011;12318;51.262;7.066;2023-05-29T12:16:26;17.63;;;3.55;;
24161;SDS011;12318;51.262;7.066;2023-05-29T12:18:54;9.20;;;2.55;;
24161;SDS011;12318;51.262;7.066;2023-05-29T12:21:21;16.42;;;3.90;;
24161;SDS011;12318;51.262;7.066;2023-05-29T12:23:47;11.45;;;3.28;;
24161;SDS011;12318;51.262;7.066;2023-05-29T12:26:13;17.25;;;3.78;;
24161;SDS011;12318;51.262;7.066;2023-05-29T12:28:46;15.57;;;3.60;;
24161;SDS011;12318;51.262;7.066;2023-05-29T12:31:14;16.05;;;3.70;;
24161;SDS011;12318;51.262;7.066;2023-05-29T12:33:59;14.15;;;3.40;;
24161;SDS011;12318;51.262;7.066;2023-05-29T12:38:51;13.93;;;4.05;;
24161;SDS011;12318;51.262;7.066;2023-05-29T12:43:54;11.68;;;3.58;;
24161;SDS011;12318;51.262;7.066;2023-05-29T12:46:26;18.13;;;3.83;;
24161;SDS011;12318;51.262;7.066;2023-05-29T12:48:53;11.60;;;3.58;;
24161;SDS011;12318;51.262;7.066;2023-05-29T12:51:23;12.93;;;3.50;;
24161;SDS011;12318;51.262;7.066;2023-05-29T12:53:52;11.55;;;3.42;;
24161;SDS011;12318;51.262;7.066;2023-05-29T12:56:23;11.15;;;3.03;;
24161;SDS011;12318;51.262;7.066;2023-05-29T12:58:51;14.30;;;3.67;;
24161;SDS011;12318;51.262;7.066;2023-05-29T13:01:17;13.35;;;3.45;;
24161;SDS011;12318;51.262;7.066;2023-05-29T13:03:44;13.35;;;3.10;;
24161;SDS011;12318;51.262;7.066;2023-05-29T13:06:10;14.55;;;3.17;;
24161;SDS011;12318;51.262;7.066;2023-05-29T13:08:36;18.55;;;3.20;;
24161;SDS011;12318;51.262;7.066;2023-05-29T13:11:02;15.10;;;2.88;;
24161;SDS011;12318;51.262;7.066;2023-05-29T13:13:28;13.13;;;3.38;;
24161;SDS011;12318;51.262;7.066;2023-05-29T13:15:53;13.07;;;3.47;;
24161;SDS011;12318;51.262;7.066;2023-05-29T13:18:19;14.93;;;3.50;;
24161;SDS011;12318;51.262;7.066;2023-05-29T13:20:45;14.73;;;3.47;;
24161;SDS011;12318;51.262;7.066;2023-05-29T13:23:11;14.38;;;3.75;;
24161;SDS011;12318;51.262;7.066;2023-05-29T13:25:37;11.70;;;3.72;;
24161;SDS011;12318;51.262;7.066;2023-05-29T13:28:03;15.13;;;3.60;;
24161;SDS011;12318;51.262;7.066;2023-05-29T13:30:29;15.27;;;3.63;;
24161;SDS011;12318;51.262;7.066;2023-05-29T13:32:55;13.00;;;3.10;;
24161;SDS011;12318;51.262;7.066;2023-05-29T13:35:21;9.15;;;3.00;;
24161;SDS011;12318;51.262;7.066;2023-05-29T13:37:46;16.75;;;3.80;;
24161;SDS011;12318;51.262;7.066;2023-05-29T13:40:12;9.75;;;3.00;;
24161;SDS011;12318;51.262;7.066;2023-05-29T13:42:41;11.55;;;3.25;;
24161;SDS011;12318;51.262;7.066;2023-05-29T13:45:10;14.65;;;3.47;;
24161;SDS011;12318;51.262;7.066;2023-05-29T13:47:37;18.50;;;3.22;;
24161;SDS011;12318;51.262;7.066;2023-05-29T13:50:03;26.88;;;3.47;;
24161;SDS011;12318;51.262;7.066;2023-05-29T13:52:29;14.35;;;3.17;;
24161;SDS011;12318;51.262;7.066;2023-05-29T13:54:55;14.38;;;3.15;;
24161;SDS011;12318;51.262;7.066;2023-05-29T13:57:23;8.50;;;2.38;;
24161;SDS011;12318;51.262;7.066;2023-05-29T13:59:48;12.73;;;3.40;;
24161;SDS011;12318;51.262;7.066;2023-05-29T14:02:15;13.88;;;3.80;;
24161;SDS011;12318;51.262;7.066;2023-05-29T14:04:43;14.20;;;2.80;;
24161;SDS011;12318;51.262;7.066;2023-05-29T14:07:08;10.50;;;3.20;;
24161;SDS011;12318;51.262;7.066;2023-05-29T14:09:34;13.23;;;3.53;;
24161;SDS011;12318;51.262;7.066;2023-05-29T14:12:00;9.68;;;2.90;;
24161;SDS011;12318;51.262;7.066;2023-05-29T14:14:27;9.50;;;2.83;;
24161;SDS011;12318;51.262;7.066;2023-05-29T14:16:53;8.32;;;3.03;;
24161;SDS011;12318;51.262;7.066;2023-05-29T14:19:19;12.63;;;3.20;;
24161;SDS011;12318;51.262;7.066;2023-05-29T14:21:46;11.88;;;3.17;;
24161;SDS011;12318;51.262;7.066;2023-05-29T14:24:12;12.68;;;3.30;;
24161;SDS011;12318;51.262;7.066;2023-05-29T14:26:38;10.93;;;3.15;;
24161;SDS011;12318;51.262;7.066;2023-05-29T14:29:04;12.27;;;3.38;;
24161;SDS011;12318;51.262;7.066;2023-05-29T14:31:31;9.30;;;3.00;;
24161;SDS011;12318;51.262;7.066;2023-05-29T14:33:57;14.18;;;3.15;;
24161;SDS011;12318;51.262;7.066;2023-05-29T14:36:22;16.80;;;3.42;;
24161;SDS011;12318;51.262;7.066;2023-05-29T14:38:48;12.93;;;3.55;;
24161;SDS011;12318;51.262;7.066;2023-05-29T14:41:14;14.02;;;3.10;;
24161;SDS011;12318;51.262;7.066;2023-05-29T14:43:41;14.05;;;3.30;;
24161;SDS011;12318;51.262;7.066;2023-05-29T14:46:08;16.15;;;3.42;;
24161;SDS011;12318;51.262;7.066;2023-05-29T14:48:34;11.90;;;2.90;;
24161;SDS011;12318;51.262;7.066;2023-05-29T14:51:00;12.65;;;3.17;;
24161;SDS011;12318;51.262;7.066;2023-05-29T14:53:26;15.20;;;3.22;;
24161;SDS011;12318;51.262;7.066;2023-05-29T14:55:53;8.20;;;2.88;;
24161;SDS011;12318;51.262;7.066;2023-05-29T14:58:21;12.70;;;2.80;;
24161;SDS011;12318;51.262;7.066;2023-05-29T15:00:46;8.82;;;2.88;;
24161;SDS011;12318;51.262;7.066;2023-05-29T15:03:12;11.32;;;3.00;;
24161;SDS011;12318;51.262;7.066;2023-05-29T15:05:38;12.05;;;2.72;;
24161;SDS011;12318;51.262;7.066;2023-05-29T15:08:04;9.63;;;2.95;;